PASN/SNP METAR and TAF weather

Enter ICAO airport designator
Station Type Date Time Source
PASN METAR 2021/01/31 16:07 UTC NOAA

PASN 311607Z 14022KT 7SM BKN029 OVC034 03/02 A2971


Station Type Date Time Source
PASN Decoded METAR 2021/01/31 16:07 UTC NOAA

ST PAUL ISLAND AIRPORT, AK, United States (PASN) 57-10N 170-13W 9M
Jan 31, 2021 - 11:07 AM EST / 2021.01.31 1607 UTC
Wind: from the SE (140 degrees) at 25 MPH (22 KT):0
Visibility: 7 mile(s):0
Sky conditions: overcast
Temperature: 37 F (3 C)
Dew Point: 35 F (2 C)
Relative Humidity: 93%
Pressure (altimeter): 29.71 in. Hg (1006 hPa)
ob: PASN 311607Z 14022KT 7SM BKN029 OVC034 03/02 A2971
cycle: 16

Station Type Date Time Source
PASN TAF 2021/03/06 04:33 UTC NOAA

TAF
AMD PASN 060430Z 0604/0624 28015G25KT 1/2SM SHSN FG OVC005
TEMPO 0604/0608 2SM -SHSN BKN010 OVC020

Example: see airport list